sensor_id;sensor_type;location;lat;lon;timestamp;pressure;altitude;pressure_sealevel;temperature;humidity
38786;BME280;24535;45.508;12.252;2023-11-22T00:00:43;101002.06;;;13.16;58.04
38786;BME280;24535;45.508;12.252;2023-11-22T00:03:09;101002.19;;;13.15;58.39
38786;BME280;24535;45.508;12.252;2023-11-22T00:05:34;100997.84;;;13.14;58.23
38786;BME280;24535;45.508;12.252;2023-11-22T00:08:00;100998.81;;;13.13;59.05
38786;BME280;24535;45.508;12.252;2023-11-22T00:10:25;101000.59;;;13.12;58.68
38786;BME280;24535;45.508;12.252;2023-11-22T00:12:51;100994.72;;;13.08;58.41
38786;BME280;24535;45.508;12.252;2023-11-22T00:15:16;100998.28;;;13.07;58.19
38786;BME280;24535;45.508;12.252;2023-11-22T00:17:46;100996.59;;;13.06;58.69
38786;BME280;24535;45.508;12.252;2023-11-22T00:20:12;101005.50;;;13.05;58.42
38786;BME280;24535;45.508;12.252;2023-11-22T00:22:38;101005.59;;;13.04;58.64
38786;BME280;24535;45.508;12.252;2023-11-22T00:25:04;101006.69;;;13.01;58.50
38786;BME280;24535;45.508;12.252;2023-11-22T00:27:32;101003.28;;;12.99;58.33
38786;BME280;24535;45.508;12.252;2023-11-22T00:29:58;101008.78;;;12.96;58.60
38786;BME280;24535;45.508;12.252;2023-11-22T00:32:23;101003.75;;;12.93;59.00
38786;BME280;24535;45.508;12.252;2023-11-22T00:34:49;101010.94;;;12.91;58.76
38786;BME280;24535;45.508;12.252;2023-11-22T00:37:14;101006.72;;;12.89;59.08
38786;BME280;24535;45.508;12.252;2023-11-22T00:39:41;101013.06;;;12.86;58.63
38786;BME280;24535;45.508;12.252;2023-11-22T00:42:07;101019.41;;;12.83;58.09
38786;BME280;24535;45.508;12.252;2023-11-22T00:44:32;101017.03;;;12.80;58.82
38786;BME280;24535;45.508;12.252;2023-11-22T00:46:58;101012.66;;;12.79;58.15
38786;BME280;24535;45.508;12.252;2023-11-22T00:49:23;101019.66;;;12.80;58.91
38786;BME280;24535;45.508;12.252;2023-11-22T00:51:49;101027.47;;;12.82;58.47
38786;BME280;24535;45.508;12.252;2023-11-22T00:54:18;101011.72;;;12.80;58.61
38786;BME280;24535;45.508;12.252;2023-11-22T00:56:45;101015.22;;;12.81;57.98
38786;BME280;24535;45.508;12.252;2023-11-22T00:59:10;101015.31;;;12.79;58.17
38786;BME280;24535;45.508;12.252;2023-11-22T01:01:36;101020.72;;;12.78;58.35
38786;BME280;24535;45.508;12.252;2023-11-22T01:04:01;101026.00;;;12.78;58.38
38786;BME280;24535;45.508;12.252;2023-11-22T01:06:27;101033.94;;;12.78;57.96
38786;BME280;24535;45.508;12.252;2023-11-22T01:08:52;101036.78;;;12.75;58.54
38786;BME280;24535;45.508;12.252;2023-11-22T01:11:18;101035.94;;;12.74;58.54
38786;BME280;24535;45.508;12.252;2023-11-22T01:13:43;101034.25;;;12.73;57.99
38786;BME280;24535;45.508;12.252;2023-11-22T01:16:10;101036.06;;;12.73;57.95
38786;BME280;24535;45.508;12.252;2023-11-22T01:18:36;101031.72;;;12.72;58.53
38786;BME280;24535;45.508;12.252;2023-11-22T01:21:02;101029.06;;;12.72;58.63
38786;BME280;24535;45.508;12.252;2023-11-22T01:23:32;101035.22;;;12.72;58.48
38786;BME280;24535;45.508;12.252;2023-11-22T01:25:58;101036.16;;;12.71;58.26
38786;BME280;24535;45.508;12.252;2023-11-22T01:28:24;101023.06;;;12.70;57.83
38786;BME280;24535;45.508;12.252;2023-11-22T01:30:50;101028.34;;;12.70;58.78
38786;BME280;24535;45.508;12.252;2023-11-22T01:33:15;101024.88;;;12.69;58.50
38786;BME280;24535;45.508;12.252;2023-11-22T01:35:41;101024.03;;;12.69;58.45
38786;BME280;24535;45.508;12.252;2023-11-22T01:38:07;101027.50;;;12.69;58.05
38786;BME280;24535;45.508;12.252;2023-11-22T01:40:33;101016.09;;;12.69;58.16
38786;BME280;24535;45.508;12.252;2023-11-22T01:42:59;101023.28;;;12.67;57.99
38786;BME280;24535;45.508;12.252;2023-11-22T01:45:27;101017.16;;;12.66;58.08
38786;BME280;24535;45.508;12.252;2023-11-22T01:47:53;101019.66;;;12.68;57.96
38786;BME280;24535;45.508;12.252;2023-11-22T01:50:19;101019.78;;;12.66;58.22
38786;BME280;24535;45.508;12.252;2023-11-22T01:52:45;101021.59;;;12.66;57.81
38786;BME280;24535;45.508;12.252;2023-11-22T01:55:12;101013.53;;;12.67;57.77
38786;BME280;24535;45.508;12.252;2023-11-22T01:57:38;101022.44;;;12.66;58.78
38786;BME280;24535;45.508;12.252;2023-11-22T02:00:04;101015.34;;;12.67;58.54
38786;BME280;24535;45.508;12.252;2023-11-22T02:02:33;101020.84;;;12.63;58.35
38786;BME280;24535;45.508;12.252;2023-11-22T02:04:59;101027.09;;;12.62;58.11
38786;BME280;24535;45.508;12.252;2023-11-22T02:07:27;101021.16;;;12.59;58.20
38786;BME280;24535;45.508;12.252;2023-11-22T02:09:52;101025.63;;;12.58;57.60
38786;BME280;24535;45.508;12.252;2023-11-22T02:12:18;101016.22;;;12.54;57.92
38786;BME280;24535;45.508;12.252;2023-11-22T02:14:45;101014.66;;;12.52;58.22
38786;BME280;24535;45.508;12.252;2023-11-22T02:17:10;101016.66;;;12.48;58.32
38786;BME280;24535;45.508;12.252;2023-11-22T02:19:36;101010.75;;;12.45;58.43
38786;BME280;24535;45.508;12.252;2023-11-22T02:22:02;101010.84;;;12.43;58.53
38786;BME280;24535;45.508;12.252;2023-11-22T02:24:27;101010.31;;;12.38;58.82
38786;BME280;24535;45.508;12.252;2023-11-22T02:26:53;101004.41;;;12.34;58.64
38786;BME280;24535;45.508;12.252;2023-11-22T02:29:18;101008.13;;;12.32;58.27
38786;BME280;24535;45.508;12.252;2023-11-22T02:31:48;101014.44;;;12.29;58.53
38786;BME280;24535;45.508;12.252;2023-11-22T02:34:13;101015.75;;;12.24;57.90
38786;BME280;24535;45.508;12.252;2023-11-22T02:36:42;101012.22;;;12.23;58.32
38786;BME280;24535;45.508;12.252;2023-11-22T02:39:11;101011.63;;;12.20;58.73
38786;BME280;24535;45.508;12.252;2023-11-22T02:41:38;101009.81;;;12.20;57.93
38786;BME280;24535;45.508;12.252;2023-11-22T02:44:04;101009.91;;;12.19;58.55
38786;BME280;24535;45.508;12.252;2023-11-22T02:46:32;101006.63;;;12.15;59.03
38786;BME280;24535;45.508;12.252;2023-11-22T02:48:58;101003.38;;;12.11;58.40
38786;BME280;24535;45.508;12.252;2023-11-22T02:51:24;101008.94;;;12.07;58.77
38786;BME280;24535;45.508;12.252;2023-11-22T02:53:51;101023.22;;;12.04;58.57
38786;BME280;24535;45.508;12.252;2023-11-22T02:56:16;101024.91;;;12.05;59.00
38786;BME280;24535;45.508;12.252;2023-11-22T02:58:42;101028.50;;;12.04;58.62
38786;BME280;24535;45.508;12.252;2023-11-22T03:01:07;101020.78;;;12.01;58.73
38786;BME280;24535;45.508;12.252;2023-11-22T03:03:34;101028.81;;;12.00;59.26
38786;BME280;24535;45.508;12.252;2023-11-22T03:06:00;101023.63;;;11.98;58.93
38786;BME280;24535;45.508;12.252;2023-11-22T03:08:25;101029.03;;;11.97;58.90
38786;BME280;24535;45.508;12.252;2023-11-22T03:10:51;101033.66;;;11.93;58.96
38786;BME280;24535;45.508;12.252;2023-11-22T03:13:17;101033.78;;;11.92;59.00
38786;BME280;24535;45.508;12.252;2023-11-22T03:15:44;101027.75;;;11.90;58.88
38786;BME280;24535;45.508;12.252;2023-11-22T03:18:09;101033.22;;;11.86;59.04
38786;BME280;24535;45.508;12.252;2023-11-22T03:20:36;101029.03;;;11.84;58.22
38786;BME280;24535;45.508;12.252;2023-11-22T03:23:02;101030.03;;;11.81;58.46
38786;BME280;24535;45.508;12.252;2023-11-22T03:25:28;101024.09;;;11.78;58.62
38786;BME280;24535;45.508;12.252;2023-11-22T03:27:54;101027.06;;;11.73;58.32
38786;BME280;24535;45.508;12.252;2023-11-22T03:30:19;101015.66;;;11.73;58.56
38786;BME280;24535;45.508;12.252;2023-11-22T03:32:45;101024.53;;;11.72;58.79
38786;BME280;24535;45.508;12.252;2023-11-22T03:35:11;101019.25;;;11.72;58.53
38786;BME280;24535;45.508;12.252;2023-11-22T03:37:37;101025.47;;;11.71;58.98
38786;BME280;24535;45.508;12.252;2023-11-22T03:40:03;101032.66;;;11.69;58.78
38786;BME280;24535;45.508;12.252;2023-11-22T03:42:28;101030.22;;;11.66;58.33
38786;BME280;24535;45.508;12.252;2023-11-22T03:44:54;101031.28;;;11.63;58.25
38786;BME280;24535;45.508;12.252;2023-11-22T03:47:20;101029.69;;;11.60;59.21
38786;BME280;24535;45.508;12.252;2023-11-22T03:49:45;101026.28;;;11.58;59.04
38786;BME280;24535;45.508;12.252;2023-11-22T03:52:11;101017.63;;;11.56;58.82
38786;BME280;24535;45.508;12.252;2023-11-22T03:54:37;101036.28;;;11.53;58.71
38786;BME280;24535;45.508;12.252;2023-11-22T03:57:04;101029.34;;;11.52;58.54
38786;BME280;24535;45.508;12.252;2023-11-22T03:59:29;101030.50;;;11.48;58.84
38786;BME280;24535;45.508;12.252;2023-11-22T04:01:55;101044.72;;;11.46;58.59
38786;BME280;24535;45.508;12.252;2023-11-22T04:04:20;101038.72;;;11.44;58.92
38786;BME280;24535;45.508;12.252;2023-11-22T04:06:46;101037.09;;;11.41;58.66
38786;BME280;24535;45.508;12.252;2023-11-22T04:09:12;101044.28;;;11.39;59.16
38786;BME280;24535;45.508;12.252;2023-11-22T04:11:38;101041.72;;;11.37;58.79
38786;BME280;24535;45.508;12.252;2023-11-22T04:14:04;101042.81;;;11.35;59.34
38786;BME280;24535;45.508;12.252;2023-11-22T04:16:29;101041.09;;;11.34;58.89
38786;BME280;24535;45.508;12.252;2023-11-22T04:18:55;101040.34;;;11.32;59.11
38786;BME280;24535;45.508;12.252;2023-11-22T04:21:20;101046.66;;;11.29;58.77
38786;BME280;24535;45.508;12.252;2023-11-22T04:23:46;101044.03;;;11.29;59.17
38786;BME280;24535;45.508;12.252;2023-11-22T04:26:11;101053.00;;;11.27;59.06
38786;BME280;24535;45.508;12.252;2023-11-22T04:28:36;101055.81;;;11.24;58.91
38786;BME280;24535;45.508;12.252;2023-11-22T04:31:02;101056.03;;;11.21;59.35
38786;BME280;24535;45.508;12.252;2023-11-22T04:33:29;101057.16;;;11.17;58.91
38786;BME280;24535;45.508;12.252;2023-11-22T04:35:54;101052.00;;;11.15;58.98
38786;BME280;24535;45.508;12.252;2023-11-22T04:38:20;101049.44;;;11.13;58.85
38786;BME280;24535;45.508;12.252;2023-11-22T04:40:46;101067.25;;;11.10;58.93
38786;BME280;24535;45.508;12.252;2023-11-22T04:43:12;101063.88;;;11.08;59.12
38786;BME280;24535;45.508;12.252;2023-11-22T04:45:38;101061.34;;;11.06;59.15
38786;BME280;24535;45.508;12.252;2023-11-22T04:48:04;101058.78;;;11.05;59.42
38786;BME280;24535;45.508;12.252;2023-11-22T04:50:30;101064.16;;;11.03;59.32
38786;BME280;24535;45.508;12.252;2023-11-22T04:52:56;101066.25;;;10.98;59.44
38786;BME280;24535;45.508;12.252;2023-11-22T04:55:22;101066.34;;;10.97;59.81
38786;BME280;24535;45.508;12.252;2023-11-22T04:57:48;101069.94;;;10.96;59.16
38786;BME280;24535;45.508;12.252;2023-11-22T05:00:14;101077.16;;;10.92;59.47
38786;BME280;24535;45.508;12.252;2023-11-22T05:02:40;101075.66;;;10.88;59.22
38786;BME280;24535;45.508;12.252;2023-11-22T05:05:09;101081.13;;;10.85;59.47
38786;BME280;24535;45.508;12.252;2023-11-22T05:07:38;101083.03;;;10.83;59.35
38786;BME280;24535;45.508;12.252;2023-11-22T05:10:04;101085.75;;;10.81;59.70
38786;BME280;24535;45.508;12.252;2023-11-22T05:12:31;101088.47;;;10.80;59.67
38786;BME280;24535;45.508;12.252;2023-11-22T05:14:56;101098.19;;;10.79;59.53
38786;BME280;24535;45.508;12.252;2023-11-22T05:17:22;101107.13;;;10.77;59.44
38786;BME280;24535;45.508;12.252;2023-11-22T05:19:49;101105.44;;;10.76;59.69
38786;BME280;24535;45.508;12.252;2023-11-22T05:22:15;101107.88;;;10.79;59.90
38786;BME280;24535;45.508;12.252;2023-11-22T05:24:41;101113.22;;;10.77;59.68
38786;BME280;24535;45.508;12.252;2023-11-22T05:27:07;101115.84;;;10.77;59.72
38786;BME280;24535;45.508;12.252;2023-11-22T05:29:33;101117.66;;;10.77;59.54
38786;BME280;24535;45.508;12.252;2023-11-22T05:31:59;101109.84;;;10.75;59.64
38786;BME280;24535;45.508;12.252;2023-11-22T05:34:25;101117.75;;;10.75;59.95
38786;BME280;24535;45.508;12.252;2023-11-22T05:36:52;101119.63;;;10.73;59.66
38786;BME280;24535;45.508;12.252;2023-11-22T05:39:17;101123.22;;;10.72;59.99
38786;BME280;24535;45.508;12.252;2023-11-22T05:41:43;101123.22;;;10.72;59.87
38786;BME280;24535;45.508;12.252;2023-11-22T05:44:09;101131.97;;;10.73;59.76
38786;BME280;24535;45.508;12.252;2023-11-22T05:46:34;101127.63;;;10.72;60.11
38786;BME280;24535;45.508;12.252;2023-11-22T05:49:00;101125.94;;;10.71;60.25
38786;BME280;24535;45.508;12.252;2023-11-22T05:51:26;101131.13;;;10.72;60.20
38786;BME280;24535;45.508;12.252;2023-11-22T05:53:52;101126.63;;;10.74;60.00
38786;BME280;24535;45.508;12.252;2023-11-22T05:56:17;101125.78;;;10.74;60.15
38786;BME280;24535;45.508;12.252;2023-11-22T05:58:43;101135.34;;;10.75;59.96
38786;BME280;24535;45.508;12.252;2023-11-22T06:01:08;101138.00;;;10.75;60.00
38786;BME280;24535;45.508;12.252;2023-11-22T06:03:35;101129.31;;;10.73;59.97
38786;BME280;24535;45.508;12.252;2023-11-22T06:06:01;101127.63;;;10.72;60.22
38786;BME280;24535;45.508;12.252;2023-11-22T06:08:28;101132.91;;;10.72;59.80
38786;BME280;24535;45.508;12.252;2023-11-22T06:10:53;101144.41;;;10.71;59.64
38786;BME280;24535;45.508;12.252;2023-11-22T06:13:22;101141.59;;;10.74;60.29
38786;BME280;24535;45.508;12.252;2023-11-22T06:15:47;101143.44;;;10.72;59.87
38786;BME280;24535;45.508;12.252;2023-11-22T06:18:13;101147.03;;;10.71;60.13
38786;BME280;24535;45.508;12.252;2023-11-22T06:20:40;101149.66;;;10.71;59.98
38786;BME280;24535;45.508;12.252;2023-11-22T06:23:06;101151.53;;;10.69;59.34
38786;BME280;24535;45.508;12.252;2023-11-22T06:25:32;101157.84;;;10.66;59.87
38786;BME280;24535;45.508;12.252;2023-11-22T06:27:57;101170.19;;;10.66;59.95
38786;BME280;24535;45.508;12.252;2023-11-22T06:30:23;101170.34;;;10.62;60.02
38786;BME280;24535;45.508;12.252;2023-11-22T06:32:50;101170.44;;;10.61;59.77
38786;BME280;24535;45.508;12.252;2023-11-22T06:35:16;101180.13;;;10.60;60.02
38786;BME280;24535;45.508;12.252;2023-11-22T06:37:43;101178.53;;;10.58;59.98
38786;BME280;24535;45.508;12.252;2023-11-22T06:40:10;101182.97;;;10.57;59.94
38786;BME280;24535;45.508;12.252;2023-11-22T06:42:38;101190.09;;;10.55;59.74
38786;BME280;24535;45.508;12.252;2023-11-22T06:45:07;101190.94;;;10.56;59.63
38786;BME280;24535;45.508;12.252;2023-11-22T06:47:35;101193.69;;;10.54;59.98
38786;BME280;24535;45.508;12.252;2023-11-22T06:50:02;101199.91;;;10.53;59.85
38786;BME280;24535;45.508;12.252;2023-11-22T06:52:29;101195.38;;;10.55;59.16
38786;BME280;24535;45.508;12.252;2023-11-22T06:54:55;101203.94;;;10.59;59.81
38786;BME280;24535;45.508;12.252;2023-11-22T06:57:21;101203.94;;;10.59;60.19
38786;BME280;24535;45.508;12.252;2023-11-22T06:59:53;101211.84;;;10.59;60.05
38786;BME280;24535;45.508;12.252;2023-11-22T07:02:19;101216.25;;;10.58;60.03
38786;BME280;24535;45.508;12.252;2023-11-22T07:04:44;101226.81;;;10.58;59.96
38786;BME280;24535;45.508;12.252;2023-11-22T07:07:10;101228.50;;;10.59;60.02
38786;BME280;24535;45.508;12.252;2023-11-22T07:09:36;101238.28;;;10.57;59.98
38786;BME280;24535;45.508;12.252;2023-11-22T07:12:02;101241.78;;;10.58;60.06
38786;BME280;24535;45.508;12.252;2023-11-22T07:14:27;101239.81;;;10.61;59.90
38786;BME280;24535;45.508;12.252;2023-11-22T07:16:54;101243.44;;;10.59;60.18
38786;BME280;24535;45.508;12.252;2023-11-22T07:19:22;101252.19;;;10.59;59.73
38786;BME280;24535;45.508;12.252;2023-11-22T07:21:48;101257.38;;;10.61;60.38
38786;BME280;24535;45.508;12.252;2023-11-22T07:24:14;101265.09;;;10.64;60.10
38786;BME280;24535;45.508;12.252;2023-11-22T07:26:41;101263.31;;;10.64;60.03
38786;BME280;24535;45.508;12.252;2023-11-22T07:29:07;101273.56;;;10.69;60.42
38786;BME280;24535;45.508;12.252;2023-11-22T07:31:33;101277.72;;;10.73;59.98
38786;BME280;24535;45.508;12.252;2023-11-22T07:33:59;101281.97;;;10.76;60.12
38786;BME280;24535;45.508;12.252;2023-11-22T07:36:27;101294.81;;;10.82;60.55
38786;BME280;24535;45.508;12.252;2023-11-22T07:38:54;101295.28;;;10.88;60.71
38786;BME280;24535;45.508;12.252;2023-11-22T07:41:19;101305.53;;;10.93;60.26
38786;BME280;24535;45.508;12.252;2023-11-22T07:43:46;101310.47;;;10.99;60.20
38786;BME280;24535;45.508;12.252;2023-11-22T07:46:12;101310.94;;;11.06;60.46
38786;BME280;24535;45.508;12.252;2023-11-22T07:48:42;101321.63;;;11.19;60.43
38786;BME280;24535;45.508;12.252;2023-11-22T07:51:08;101312.13;;;11.30;60.64
38786;BME280;24535;45.508;12.252;2023-11-22T07:53:34;101316.91;;;11.38;60.39
38786;BME280;24535;45.508;12.252;2023-11-22T07:56:03;101310.25;;;11.47;60.39
38786;BME280;24535;45.508;12.252;2023-11-22T07:58:33;101314.09;;;11.55;59.91
38786;BME280;24535;45.508;12.252;2023-11-22T08:00:59;101329.47;;;11.63;60.30
38786;BME280;24535;45.508;12.252;2023-11-22T08:03:25;101331.72;;;11.69;59.97
38786;BME280;24535;45.508;12.252;2023-11-22T08:05:52;101332.19;;;11.76;59.92
38786;BME280;24535;45.508;12.252;2023-11-22T08:08:23;101337.88;;;11.84;60.04
38786;BME280;24535;45.508;12.252;2023-11-22T08:10:49;101343.41;;;11.94;60.12
38786;BME280;24535;45.508;12.252;2023-11-22T08:13:21;101355.19;;;12.02;60.11
38786;BME280;24535;45.508;12.252;2023-11-22T08:15:48;101351.97;;;12.11;59.24
38786;BME280;24535;45.508;12.252;2023-11-22T08:18:14;101357.63;;;12.20;58.82
38786;BME280;24535;45.508;12.252;2023-11-22T08:20:42;101361.47;;;12.28;59.31
38786;BME280;24535;45.508;12.252;2023-11-22T08:23:08;101358.34;;;12.36;59.04
38786;BME280;24535;45.508;12.252;2023-11-22T08:25:34;101358.56;;;12.46;58.69
38786;BME280;24535;45.508;12.252;2023-11-22T08:27:59;101361.69;;;12.52;58.58
38786;BME280;24535;45.508;12.252;2023-11-22T08:30:26;101362.03;;;12.60;58.51
38786;BME280;24535;45.508;12.252;2023-11-22T08:32:52;101366.81;;;12.68;58.43
38786;BME280;24535;45.508;12.252;2023-11-22T08:35:19;101365.34;;;12.77;58.62
38786;BME280;24535;45.508;12.252;2023-11-22T08:37:47;101370.88;;;12.86;58.40
38786;BME280;24535;45.508;12.252;2023-11-22T08:40:13;101374.69;;;12.95;58.39
38786;BME280;24535;45.508;12.252;2023-11-22T08:42:41;101376.63;;;13.06;58.04
38786;BME280;24535;45.508;12.252;2023-11-22T08:45:08;101378.66;;;13.15;57.72
38786;BME280;24535;45.508;12.252;2023-11-22T08:47:34;101379.84;;;13.24;56.98
38786;BME280;24535;45.508;12.252;2023-11-22T08:49:59;101379.25;;;13.33;57.92
38786;BME280;24535;45.508;12.252;2023-11-22T08:52:25;101382.22;;;13.41;57.60
38786;BME280;24535;45.508;12.252;2023-11-22T08:54:50;101384.97;;;13.52;57.62
38786;BME280;24535;45.508;12.252;2023-11-22T08:57:17;101386.03;;;13.63;57.38
38786;BME280;24535;45.508;12.252;2023-11-22T08:59:42;101385.31;;;13.73;56.94
38786;BME280;24535;45.508;12.252;2023-11-22T09:02:08;101382.09;;;13.81;56.25
38786;BME280;24535;45.508;12.252;2023-11-22T09:04:33;101379.75;;;13.89;55.93
38786;BME280;24535;45.508;12.252;2023-11-22T09:07:00;101381.22;;;13.93;55.92
38786;BME280;24535;45.508;12.252;2023-11-22T09:09:26;101392.25;;;14.00;55.73
38786;BME280;24535;45.508;12.252;2023-11-22T09:11:59;101403.28;;;14.06;56.23
38786;BME280;24535;45.508;12.252;2023-11-22T09:14:25;101409.06;;;14.12;55.47
38786;BME280;24535;45.508;12.252;2023-11-22T09:16:51;101398.28;;;14.15;55.47
38786;BME280;24535;45.508;12.252;2023-11-22T09:19:23;101394.94;;;14.24;55.21
38786;BME280;24535;45.508;12.252;2023-11-22T09:21:49;101401.50;;;14.31;56.05
38786;BME280;24535;45.508;12.252;2023-11-22T09:24:15;101398.31;;;14.39;54.78
38786;BME280;24535;45.508;12.252;2023-11-22T09:26:40;101404.00;;;14.45;54.36
38786;BME280;24535;45.508;12.252;2023-11-22T09:29:07;101412.63;;;14.49;53.71
38786;BME280;24535;45.508;12.252;2023-11-22T09:31:33;101407.22;;;14.50;54.13
38786;BME280;24535;45.508;12.252;2023-11-22T09:33:59;101405.06;;;14.55;53.92
38786;BME280;24535;45.508;12.252;2023-11-22T09:36:26;101412.81;;;14.58;53.61
38786;BME280;24535;45.508;12.252;2023-11-22T09:38:53;101411.63;;;14.63;53.71
38786;BME280;24535;45.508;12.252;2023-11-22T09:41:18;101423.72;;;14.67;53.81
38786;BME280;24535;45.508;12.252;2023-11-22T09:43:44;101421.06;;;14.67;53.32
38786;BME280;24535;45.508;12.252;2023-11-22T09:46:14;101419.00;;;14.70;52.61
38786;BME280;24535;45.508;12.252;2023-11-22T09:48:42;101419.53;;;14.75;53.06
38786;BME280;24535;45.508;12.252;2023-11-22T09:53:40;101406.41;;;14.85;53.01
38786;BME280;24535;45.508;12.252;2023-11-22T09:56:07;101416.25;;;14.96;53.21
38786;BME280;24535;45.508;12.252;2023-11-22T09:58:39;101416.63;;;15.02;52.41
38786;BME280;24535;45.508;12.252;2023-11-22T10:01:06;101423.38;;;15.06;52.43
38786;BME280;24535;45.508;12.252;2023-11-22T10:03:33;101422.94;;;15.13;52.17
38786;BME280;24535;45.508;12.252;2023-11-22T10:05:59;101430.19;;;15.22;52.41
38786;BME280;24535;45.508;12.252;2023-11-22T10:08:28;101432.16;;;15.31;51.98
38786;BME280;24535;45.508;12.252;2023-11-22T10:10:55;101436.53;;;15.43;51.49
38786;BME280;24535;45.508;12.252;2023-11-22T10:13:21;101439.22;;;15.54;51.51
38786;BME280;24535;45.508;12.252;2023-11-22T10:15:51;101431.41;;;15.64;51.36
38786;BME280;24535;45.508;12.252;2023-11-22T10:18:20;101427.09;;;15.74;51.79
38786;BME280;24535;45.508;12.252;2023-11-22T10:20:50;101432.03;;;15.79;50.69
38786;BME280;24535;45.508;12.252;2023-11-22T10:23:17;101434.13;;;15.87;50.78
38786;BME280;24535;45.508;12.252;2023-11-22T10:25:44;101437.38;;;15.90;50.10
38786;BME280;24535;45.508;12.252;2023-11-22T10:28:11;101443.19;;;15.95;50.51
38786;BME280;24535;45.508;12.252;2023-11-22T10:30:37;101440.28;;;15.98;50.07
38786;BME280;24535;45.508;12.252;2023-11-22T10:33:03;101441.59;;;16.04;49.45
38786;BME280;24535;45.508;12.252;2023-11-22T10:35:29;101429.75;;;16.08;49.44
38786;BME280;24535;45.508;12.252;2023-11-22T10:37:55;101434.97;;;16.10;49.04
38786;BME280;24535;45.508;12.252;2023-11-22T10:40:21;101443.56;;;16.13;49.10
38786;BME280;24535;45.508;12.252;2023-11-22T10:42:48;101449.47;;;16.17;49.19
38786;BME280;24535;45.508;12.252;2023-11-22T10:45:17;101454.53;;;16.20;48.67
38786;BME280;24535;45.508;12.252;2023-11-22T10:47:43;101455.50;;;16.19;48.88
38786;BME280;24535;45.508;12.252;2023-11-22T10:50:09;101457.19;;;16.20;49.05
38786;BME280;24535;45.508;12.252;2023-11-22T10:52:41;101459.75;;;16.21;48.63
38786;BME280;24535;45.508;12.252;2023-11-22T10:55:11;101468.56;;;16.22;48.72
38786;BME280;24535;45.508;12.252;2023-11-22T10:57:44;101468.56;;;16.22;48.66
38786;BME280;24535;45.508;12.252;2023-11-22T11:00:15;101473.03;;;16.21;48.85
38786;BME280;24535;45.508;12.252;2023-11-22T11:02:41;101476.53;;;16.22;48.54
38786;BME280;24535;45.508;12.252;2023-11-22T11:05:19;101481.84;;;16.22;48.26
38786;BME280;24535;45.508;12.252;2023-11-22T11:07:54;101486.19;;;16.23;48.21
38786;BME280;24535;45.508;12.252;2023-11-22T11:10:25;101481.84;;;16.22;46.43
38786;BME280;24535;45.508;12.252;2023-11-22T11:12:52;101488.00;;;16.22;48.78
38786;BME280;24535;45.508;12.252;2023-11-22T11:15:19;101488.84;;;16.23;48.79
38786;BME280;24535;45.508;12.252;2023-11-22T11:17:47;101488.84;;;16.23;48.83
38786;BME280;24535;45.508;12.252;2023-11-22T11:20:15;101479.06;;;16.23;48.92
38786;BME280;24535;45.508;12.252;2023-11-22T11:22:42;101487.88;;;16.24;48.89
38786;BME280;24535;45.508;12.252;2023-11-22T11:25:08;101478.97;;;16.25;48.96
38786;BME280;24535;45.508;12.252;2023-11-22T11:27:34;101483.06;;;16.29;48.62
38786;BME280;24535;45.508;12.252;2023-11-22T11:30:39;101481.25;;;16.29;47.44
38786;BME280;24535;45.508;12.252;2023-11-22T11:33:06;101482.94;;;16.30;48.79
38786;BME280;24535;45.508;12.252;2023-11-22T11:35:40;101478.47;;;16.31;47.77
38786;BME280;24535;45.508;12.252;2023-11-22T11:38:07;101479.44;;;16.30;48.45
38786;BME280;24535;45.508;12.252;2023-11-22T11:40:35;101482.34;;;16.27;48.07
38786;BME280;24535;45.508;12.252;2023-11-22T11:43:01;101484.00;;;16.28;48.16
38786;BME280;24535;45.508;12.252;2023-11-22T11:45:27;101485.72;;;16.29;48.37
38786;BME280;24535;45.508;12.252;2023-11-22T11:47:53;101483.78;;;16.31;48.13
38786;BME280;24535;45.508;12.252;2023-11-22T11:50:21;101486.44;;;16.31;47.79
38786;BME280;24535;45.508;12.252;2023-11-22T11:52:47;101484.63;;;16.31;48.35
38786;BME280;24535;45.508;12.252;2023-11-22T11:55:13;101495.25;;;16.31;47.50
38786;BME280;24535;45.508;12.252;2023-11-22T11:57:38;101499.59;;;16.32;48.21
38786;BME280;24535;45.508;12.252;2023-11-22T12:00:04;101489.09;;;16.31;47.86
38786;BME280;24535;45.508;12.252;2023-11-22T12:02:30;101489.94;;;16.31;48.12
38786;BME280;24535;45.508;12.252;2023-11-22T12:04:56;101486.22;;;16.34;48.23
38786;BME280;24535;45.508;12.252;2023-11-22T12:07:21;101493.34;;;16.34;47.43
38786;BME280;24535;45.508;12.252;2023-11-22T12:09:47;101488.72;;;16.36;47.89
38786;BME280;24535;45.508;12.252;2023-11-22T12:12:13;101494.06;;;16.36;47.20
38786;BME280;24535;45.508;12.252;2023-11-22T12:14:39;101498.53;;;16.35;47.60
38786;BME280;24535;45.508;12.252;2023-11-22T12:17:05;101496.00;;;16.34;47.64
38786;BME280;24535;45.508;12.252;2023-11-22T12:19:33;101500.47;;;16.33;47.32
38786;BME280;24535;45.508;12.252;2023-11-22T12:21:59;101508.47;;;16.33;46.83
38786;BME280;24535;45.508;12.252;2023-11-22T12:24:25;101496.94;;;16.32;47.11
38786;BME280;24535;45.508;12.252;2023-11-22T12:26:50;101498.91;;;16.30;46.98
38786;BME280;24535;45.508;12.252;2023-11-22T12:29:16;101514.84;;;16.30;46.38
38786;BME280;24535;45.508;12.252;2023-11-22T12:31:50;101512.31;;;16.29;46.32
38786;BME280;24535;45.508;12.252;2023-11-22T12:34:18;101507.84;;;16.29;46.77
38786;BME280;24535;45.508;12.252;2023-11-22T12:36:45;101514.38;;;16.25;46.58
38786;BME280;24535;45.508;12.252;2023-11-22T12:39:12;101517.88;;;16.26;47.17